Santa Cruz do Rio Pardo, Brazil
Current Conditions -  °F | °C
As of 2:00 PM on Saturday 22 Nov 2014 (Local Time) from SBBU Reporting Station
Overcast Overcast  
Wind Chill: 75°   Ceiling: 9000
Heat Index: 75°   Visibility: 6mi
Dew Point: 68°   Wind: 12mph
Humidity: 78%   Direction: 230°SW
Pressure: 29.97"   Gusts: NA
Location:  22.9°S, 49.63°W
Report Text: SBBU 221600Z 23010KT 9999 SCT045 OVC090 24/20 Q1015
Loading
Personal Weather Stations






























Interactive Weather Map New forecast layout! Learn more

10-Day Weather Forecast

Advertisements
Track Severe Weather on mobile